• Join FlightAware (Why Join?)
  • Login
  • US Flag 
09:33PM EDT


 

Airport Tracker/Info


-or-


 

Live Flight TrackerFlight Track Log ✈ KAP169 ✈ 17-May-2013 ✈ KRKD - KBOS

Flight Track Log - Related Links

Times and Time Zones

All times are in EDT time to prevent confusion due to time zone crossing. See the KAP169 flight status page for this flight to view local times or setup timezone preferences in your user account.

Time Position Orientation Groundspeed Altitude Reporting Facility
EDT Latitude Longitude Course Direction KTS MPH feet Rate Location/Type
04:02PM 43.9278 -69.4083 227° Southwest  Level FlightAware Approximate
04:03PM 43.8985 -69.4544 245° Southwest  Level FlightAware Approximate
04:04PM 43.8787 -69.5094 235° Southwest  Level FlightAware Approximate
04:05PM 43.8533 -69.5600 235° Southwest  Level FlightAware Approximate
04:06PM 43.8309 -69.6131 240° Southwest  Level FlightAware Approximate
04:07PM 43.8088 -69.6665 240° Southwest  Level FlightAware Approximate
04:08PM 43.7867 -69.7199 240° Southwest  Level FlightAware Approximate
04:09PM 43.7646 -69.7733 240° Southwest  Level FlightAware Approximate
04:10PM 43.7424 -69.8266 240° Southwest  Level FlightAware Approximate
04:11PM 43.7203 -69.8799 240° Southwest  Level FlightAware Approximate
04:12PM 43.6981 -69.9332 240° Southwest  Level FlightAware Approximate
04:13PM 43.6759 -69.9864 240° Southwest  Level FlightAware Approximate
04:14PM 43.6536 -70.0395 240° Southwest  Level FlightAware Approximate
04:15PM 43.6314 -70.0926 240° Southwest  Level FlightAware Approximate
04:16PM 43.6091 -70.1457 240° Southwest  Level FlightAware Approximate
04:17PM 43.5868 -70.1988 240° Southwest  Level FlightAware Approximate
04:18PM 43.5644 -70.2518 240° Southwest  Level FlightAware Approximate
04:19PM 43.5421 -70.3047 240° Southwest  Level FlightAware Approximate
04:20PM 43.5197 -70.3577 240° Southwest  Level FlightAware Approximate
04:21PM 43.4973 -70.4106 240° Southwest  Level FlightAware Approximate
04:22PM 43.4748 -70.4634 240° Southwest  Level FlightAware Approximate
04:22PM 43.3000 -70.2667 207° Southwest 167 192 10,100  Level KA90
04:22PM 43.2833 -70.3000 236° Southwest 169 194 10,000 -60 Descending KA90
04:23PM 43.4524 -70.5162 240° Southwest  Level FlightAware Approximate
04:23PM 43.2500 -70.3667 236° Southwest 168 193 10,000  Level KA90
04:24PM 43.4299 -70.5690 240° Southwest  Level FlightAware Approximate
04:24PM 43.2167 -70.4167 228° Southwest 166 191 10,000  Level KA90
04:25PM 43.4004 -70.6116 207° Southwest  Level FlightAware Approximate
04:25PM 43.1833 -70.4500 216° Southwest 163 188 10,000  Level KA90
04:26PM 43.3610 -70.6398 207° Southwest  Level FlightAware Approximate
04:26PM 43.1500 -70.5000 228° Southwest 159 183 10,000  Level KA90
04:27PM 43.3216 -70.6679 207° Southwest  Level FlightAware Approximate
04:27PM 43.1333 -70.5333 236° Southwest 149 171 10,000  Level KA90
04:28PM 43.1000 -70.5667 216° Southwest 140 161 9,900 -360 Descending KA90
04:29PM 43.0500 -70.6000 206° Southwest 194 223 9,300 -600 Descending KA90
04:30PM 43.0000 -70.6333 206° Southwest 196 226 8,700 -600 Descending KA90
04:31PM 42.9667 -70.6500 200° South 195 224 8,300 -540 Descending KA90
04:32PM 42.9167 -70.6833 206° Southwest 196 226 7,800 -600 Descending KA90
04:33PM 42.8667 -70.7167 206° Southwest 197 227 7,200 -420 Descending KA90
04:34PM 42.8167 -70.7500 206° Southwest 184 212 7,000 -120 Descending KA90
04:35PM 42.7833 -70.8000 228° Southwest 174 200 7,000 -240 Level KA90
04:36PM 42.7500 -70.8333 216° Southwest 175 201 6,600 -540 Descending KA90
04:37PM 42.7000 -70.8833 216° Southwest 184 212 6,000 -600 Descending KA90
04:38PM 42.6667 -70.9167 216° Southwest 181 208 5,500 -540 Descending KA90
04:39PM 42.6333 -70.9667 228° Southwest 184 212 4,900 -300 Descending KA90
04:40PM 42.5833 -71.0167 216° Southwest 174 200 5,000  Climbing KA90
04:41PM 42.5500 -71.0500 216° Southwest 182 209 5,000  Level KA90
04:42PM 42.5000 -71.0833 206° Southwest 181 208 5,000 -60 Level KA90
04:43PM 42.4667 -71.1167 216° Southwest 187 215 4,900 -60 Descending KA90
04:44PM 42.4167 -71.1167 180° South 182 209 4,900  Level KA90
04:45PM 42.3667 -71.1333 194° South 176 203 5,000 -480 Climbing KA90
04:46PM 42.3000 -71.1333 180° South 191 220 4,000 -1,260 Descending KA90
04:47PM 42.3000 -71.0833 90° East 158 182 2,500 -1,380 Descending KA90
04:48PM 42.3167 -71.0333 66° East 148 170 1,200 -1,140 Descending KA90
04:49PM 42.3500 -71.0167 20° North 127 146 300 -960 Descending KA90
04:51PM 42.3500 -71.0000 172° South  Level FlightAware Approximate
04:58PM 42.3630 -71.0064 172° South  Level Estimated